GMU weather

Greenville Downtown Airport
Greenville, South Carolina, United States

Public forecast

Using degrees Fahrenheit for public forecast. Weather courtesy of forecast.io.

METAR (pilot weather report)

Retrieved 2019/09/23 09:53 UTC (8 minutes ago):

KGMU 230953Z AUTO 00000KT 10SM CLR 18/14 A3012 RMK AO2 SLP188 T01830144

TAF (pilot weather forecast)

Retrieved 2019/09/23 06:36 UTC (3 hours ago):

TAF KGMU 230533Z 2306/2406 24003KT P6SM SKC FM231600 24006KT P6SM FEW060 SCT200 FM240300 26003KT P6SM SCT120